TAF LFPG
LFPG 090500Z 0906/1012 22010KT CAVOK TX08/0912Z TN03/0906Z BECMG 0915/0917 BKN012 BECMG 0920/0922 20015G25KT TEMPO 0921/1004 4000 -RA BKN006 FEW008TCU PROB30 TEMPO 0921/0924 2000 RA BKN004 BECMG 1004/1006 26020G30KT BKN020 PROB40 TEMPO 1005/1012 27020G35KT 4000 -SHRA SCT014TCU=
METAR LFPG
LFPG 091000Z 25011KT CAVOK 05/01 Q1007 NOSIG=
LFPG 090930Z 24010KT 9999 FEW033 SCT200 05/01 Q1007 NOSIG=
LFPG 090900Z 23013KT 9999 FEW033 SCT170 04/01 Q1007 NOSIG=
LFPG 090830Z 23012KT 9999 FEW036 SCT160 04/01 Q1007 NOSIG=
LFPG 090800Z 23012KT CAVOK 04/01 Q1007 NOSIG=
WC LFPG
WS LFPG
WV LFPG